Aeroporto :
LOGIN :

Iscrizione | Disclaimer

   EN    FR    IT 

 










Sommario :    VFR   VFR Marginale   IFR   IFR Intensivo   IFR Molto Intensivo
Visibilità : 
Base nubi : 
>= 8 km
>= 3000ft
5 / 8 km
1000 / 3000 ft
1500m / 5 km
500 / 1000 ft
800 / 1500m
200 / 500 ft
< 800m
< 200 ft
Simboli :   Temporali  Nebbia  Neve Forte  Precipitazioni Forti  Vento > 20 kt
SIGMETs :   Varie  Temporali  Ghiacco  Turbolenza  Onda orograficha  Ceneri Vulcaniche






- Altitudine del aeroporto : 466 ft


LHPA - Pápa

ULTIMO METAR :
  • 251015Z 00000KT 1500 BR OVC003 M02/M03 Q1025 NOSIG RMK AMB

METARs OBSOLETI :
  • 250945Z 00000KT 1500 BR OVC003 M02/M03 Q1025 NOSIG RMK AMB
  • 250915Z 10002KT 1500 BR OVC003 M02/M03 Q1025 NOSIG RMK AMB
  • 250845Z 07002KT 1500 BR OVC003 M02/M03 Q1025 NOSIG RMK AMB
  • 250815Z 11002KT 1500 BR OVC003 M03/M03 Q1025 NOSIG RMK AMB
  • 250745Z 10002KT 1500 BR OVC003 M02/M02 Q1024 NOSIG RMK AMB
  • 250715Z 11002KT 1500 BR OVC003 M03/M03 Q1024 NOSIG RMK AMB

TAF AMD TAF LHPA
Valido dal 25 a 09 ore il 26 a 06 ore UTC


250919Z 2509/2606 VRB03KT 3000 BR OVC005
TEMPO 2509/2511 1500 BR OVC003
TEMPO 2511/2516 5000 BR BKN008
PROB30
TEMPO 2512/2515 6000 NSW BKN010
TEMPO 2520/2606 0800 FZFG OVC002



MetMap, La meteo Aeronautica in un colpo d'occhio ! - Copyright ORBIFLY Dicembre 2007 - Disclaimer

ORBIFLY MET'MAP TEAM :

Programmazione e sviluppo : Alexandra Zaïnal
Concezione : Baudouin d'Aumeries
Aiuto per la programmazione : Marc-Olivier Méhu
Supporto tecnico e logistico : Manuel Goepfert
Aiuto per la traduzione : Arnaldo La Scala

Contatto : metmap@orbifly.com




FONTI E CREDITI :

   NOAA